sensor_id;sensor_type;location;lat;lon;timestamp;pressure;altitude;pressure_sealevel;temperature;humidity
10948;BME280;5526;42.070;24.752;2023-04-25T00:01:21;98211.34;;;14.37;100.00
10948;BME280;5526;42.070;24.752;2023-04-25T00:03:48;98209.78;;;14.36;100.00
10948;BME280;5526;42.070;24.752;2023-04-25T00:06:15;98211.16;;;14.34;100.00
10948;BME280;5526;42.070;24.752;2023-04-25T00:08:43;98208.22;;;14.35;100.00
10948;BME280;5526;42.070;24.752;2023-04-25T00:11:12;98196.09;;;14.34;100.00
10948;BME280;5526;42.070;24.752;2023-04-25T00:13:39;98191.38;;;14.31;100.00
10948;BME280;5526;42.070;24.752;2023-04-25T00:16:07;98189.44;;;14.23;100.00
10948;BME280;5526;42.070;24.752;2023-04-25T00:18:34;98195.69;;;14.27;100.00
10948;BME280;5526;42.070;24.752;2023-04-25T00:21:01;98197.53;;;14.27;100.00
10948;BME280;5526;42.070;24.752;2023-04-25T00:23:31;98193.63;;;14.24;100.00
10948;BME280;5526;42.070;24.752;2023-04-25T00:25:58;98190.28;;;14.19;100.00
10948;BME280;5526;42.070;24.752;2023-04-25T00:28:27;98196.88;;;14.21;100.00
10948;BME280;5526;42.070;24.752;2023-04-25T00:30:54;98182.53;;;14.22;100.00
10948;BME280;5526;42.070;24.752;2023-04-25T00:33:21;98184.69;;;14.20;100.00
10948;BME280;5526;42.070;24.752;2023-04-25T00:35:48;98181.06;;;14.16;100.00
10948;BME280;5526;42.070;24.752;2023-04-25T00:38:15;98197.53;;;14.00;100.00
10948;BME280;5526;42.070;24.752;2023-04-25T00:40:42;98200.38;;;14.03;100.00
10948;BME280;5526;42.070;24.752;2023-04-25T00:43:10;98196.44;;;14.14;100.00
10948;BME280;5526;42.070;24.752;2023-04-25T00:45:39;98186.06;;;14.18;100.00
10948;BME280;5526;42.070;24.752;2023-04-25T00:48:06;98181.75;;;13.95;100.00
10948;BME280;5526;42.070;24.752;2023-04-25T00:50:33;98176.88;;;13.75;100.00
10948;BME280;5526;42.070;24.752;2023-04-25T00:53:00;98177.06;;;13.78;100.00
10948;BME280;5526;42.070;24.752;2023-04-25T00:55:29;98178.31;;;13.81;100.00
10948;BME280;5526;42.070;24.752;2023-04-25T00:57:57;98187.06;;;13.81;100.00
10948;BME280;5526;42.070;24.752;2023-04-25T01:00:24;98184.13;;;13.83;100.00
10948;BME280;5526;42.070;24.752;2023-04-25T01:02:52;98180.78;;;13.91;100.00
10948;BME280;5526;42.070;24.752;2023-04-25T01:05:19;98190.56;;;13.90;100.00
10948;BME280;5526;42.070;24.752;2023-04-25T01:07:46;98193.31;;;13.99;100.00
10948;BME280;5526;42.070;24.752;2023-04-25T01:10:14;98187.53;;;13.97;100.00
10948;BME280;5526;42.070;24.752;2023-04-25T01:12:41;98188.44;;;14.06;100.00
10948;BME280;5526;42.070;24.752;2023-04-25T01:15:09;98201.94;;;14.04;100.00
10948;BME280;5526;42.070;24.752;2023-04-25T01:17:36;98198.09;;;14.10;100.00
10948;BME280;5526;42.070;24.752;2023-04-25T01:20:07;98191.16;;;14.14;100.00
10948;BME280;5526;42.070;24.752;2023-04-25T01:22:37;98196.06;;;14.07;100.00
10948;BME280;5526;42.070;24.752;2023-04-25T01:25:04;98189.81;;;14.03;100.00
10948;BME280;5526;42.070;24.752;2023-04-25T01:27:32;98185.56;;;14.02;100.00
10948;BME280;5526;42.070;24.752;2023-04-25T01:29:59;98184.69;;;14.07;100.00
10948;BME280;5526;42.070;24.752;2023-04-25T01:32:27;98183.03;;;14.11;100.00
10948;BME280;5526;42.070;24.752;2023-04-25T01:34:54;98191.16;;;14.14;100.00
10948;BME280;5526;42.070;24.752;2023-04-25T01:37:21;98187.06;;;14.08;100.00
10948;BME280;5526;42.070;24.752;2023-04-25T01:39:49;98189.13;;;14.11;100.00
10948;BME280;5526;42.070;24.752;2023-04-25T01:42:16;98190.16;;;14.10;100.00
10948;BME280;5526;42.070;24.752;2023-04-25T01:44:43;98191.25;;;14.09;100.00
10948;BME280;5526;42.070;24.752;2023-04-25T01:47:10;98178.63;;;14.06;100.00
10948;BME280;5526;42.070;24.752;2023-04-25T01:49:37;98171.75;;;14.05;100.00
10948;BME280;5526;42.070;24.752;2023-04-25T01:52:05;98168.66;;;14.03;100.00
10948;BME280;5526;42.070;24.752;2023-04-25T01:54:32;98171.88;;;14.00;100.00
10948;BME280;5526;42.070;24.752;2023-04-25T01:57:00;98179.50;;;14.02;100.00
10948;BME280;5526;42.070;24.752;2023-04-25T01:59:27;98174.31;;;13.97;100.00
10948;BME280;5526;42.070;24.752;2023-04-25T02:01:54;98180.38;;;13.97;100.00
10948;BME280;5526;42.070;24.752;2023-04-25T02:04:21;98167.16;;;13.97;100.00
10948;BME280;5526;42.070;24.752;2023-04-25T02:06:48;98171.38;;;13.98;100.00
10948;BME280;5526;42.070;24.752;2023-04-25T02:09:15;98159.22;;;13.97;100.00
10948;BME280;5526;42.070;24.752;2023-04-25T02:11:42;98160.78;;;13.98;100.00
10948;BME280;5526;42.070;24.752;2023-04-25T02:14:13;98159.13;;;14.02;100.00
10948;BME280;5526;42.070;24.752;2023-04-25T02:16:40;98164.91;;;14.04;100.00
10948;BME280;5526;42.070;24.752;2023-04-25T02:19:09;98166.66;;;14.09;100.00
10948;BME280;5526;42.070;24.752;2023-04-25T02:21:36;98166.97;;;14.07;100.00
10948;BME280;5526;42.070;24.752;2023-04-25T02:24:04;98161.28;;;14.14;100.00
10948;BME280;5526;42.070;24.752;2023-04-25T02:26:31;98165.47;;;14.15;100.00
10948;BME280;5526;42.070;24.752;2023-04-25T02:28:58;98162.03;;;14.14;100.00
10948;BME280;5526;42.070;24.752;2023-04-25T02:31:28;98159.91;;;14.16;100.00
10948;BME280;5526;42.070;24.752;2023-04-25T02:33:55;98150.88;;;14.17;100.00
10948;BME280;5526;42.070;24.752;2023-04-25T02:36:21;98150.19;;;14.25;100.00
10948;BME280;5526;42.070;24.752;2023-04-25T02:38:49;98151.47;;;14.28;100.00
10948;BME280;5526;42.070;24.752;2023-04-25T02:41:16;98153.63;;;14.26;100.00
10948;BME280;5526;42.070;24.752;2023-04-25T02:43:43;98149.44;;;14.25;100.00
10948;BME280;5526;42.070;24.752;2023-04-25T02:46:10;98151.09;;;14.21;100.00
10948;BME280;5526;42.070;24.752;2023-04-25T02:48:38;98152.94;;;14.20;100.00
10948;BME280;5526;42.070;24.752;2023-04-25T02:51:05;98159.91;;;14.16;100.00
10948;BME280;5526;42.070;24.752;2023-04-25T02:53:32;98153.41;;;14.09;100.00
10948;BME280;5526;42.070;24.752;2023-04-25T02:55:59;98159.50;;;14.09;100.00
10948;BME280;5526;42.070;24.752;2023-04-25T02:58:26;98162.16;;;14.09;100.00
10948;BME280;5526;42.070;24.752;2023-04-25T03:00:53;98166.66;;;14.09;100.00
10948;BME280;5526;42.070;24.752;2023-04-25T03:03:20;98172.56;;;14.06;100.00
10948;BME280;5526;42.070;24.752;2023-04-25T03:05:49;98182.44;;;14.00;100.00
10948;BME280;5526;42.070;24.752;2023-04-25T03:08:16;98167.44;;;13.96;100.00
10948;BME280;5526;42.070;24.752;2023-04-25T03:10:43;98169.34;;;13.95;100.00
10948;BME280;5526;42.070;24.752;2023-04-25T03:13:10;98169.63;;;13.94;100.00
10948;BME280;5526;42.070;24.752;2023-04-25T03:15:38;98170.38;;;13.94;100.00
10948;BME280;5526;42.070;24.752;2023-04-25T03:18:05;98176.66;;;13.98;100.00
10948;BME280;5526;42.070;24.752;2023-04-25T03:20:32;98175.28;;;14.01;100.00
10948;BME280;5526;42.070;24.752;2023-04-25T03:23:01;98169.00;;;13.97;100.00
10948;BME280;5526;42.070;24.752;2023-04-25T03:25:28;98171.19;;;13.95;100.00
10948;BME280;5526;42.070;24.752;2023-04-25T03:27:55;98165.09;;;13.94;100.00
10948;BME280;5526;42.070;24.752;2023-04-25T03:30:22;98164.53;;;13.97;100.00
10948;BME280;5526;42.070;24.752;2023-04-25T03:32:49;98157.56;;;14.01;100.00
10948;BME280;5526;42.070;24.752;2023-04-25T03:35:16;98154.22;;;13.96;100.00
10948;BME280;5526;42.070;24.752;2023-04-25T03:37:43;98153.66;;;13.99;100.00
10948;BME280;5526;42.070;24.752;2023-04-25T03:40:12;98145.81;;;13.94;100.00
10948;BME280;5526;42.070;24.752;2023-04-25T03:42:39;98146.88;;;13.93;100.00
10948;BME280;5526;42.070;24.752;2023-04-25T03:45:07;98146.88;;;13.93;100.00
10948;BME280;5526;42.070;24.752;2023-04-25T03:47:34;98136.69;;;13.86;100.00
10948;BME280;5526;42.070;24.752;2023-04-25T03:50:01;98136.69;;;13.86;100.00
10948;BME280;5526;42.070;24.752;2023-04-25T03:52:29;98135.31;;;13.75;100.00
10948;BME280;5526;42.070;24.752;2023-04-25T03:54:56;98131.91;;;13.75;100.00
10948;BME280;5526;42.070;24.752;2023-04-25T03:57:24;98132.69;;;13.75;100.00
10948;BME280;5526;42.070;24.752;2023-04-25T03:59:51;98128.47;;;13.74;100.00
10948;BME280;5526;42.070;24.752;2023-04-25T04:02:18;98122.41;;;13.74;100.00
10948;BME280;5526;42.070;24.752;2023-04-25T04:04:45;98131.13;;;13.74;100.00
10948;BME280;5526;42.070;24.752;2023-04-25T04:07:12;98127.91;;;13.77;100.00
10948;BME280;5526;42.070;24.752;2023-04-25T04:09:39;98120.25;;;13.76;100.00
10948;BME280;5526;42.070;24.752;2023-04-25T04:12:06;98134.56;;;13.75;100.00
10948;BME280;5526;42.070;24.752;2023-04-25T04:14:35;98133.38;;;13.81;100.00
10948;BME280;5526;42.070;24.752;2023-04-25T04:17:01;98129.84;;;13.85;100.00
10948;BME280;5526;42.070;24.752;2023-04-25T04:19:28;98139.06;;;13.88;100.00
10948;BME280;5526;42.070;24.752;2023-04-25T04:21:55;98141.00;;;13.96;100.00
10948;BME280;5526;42.070;24.752;2023-04-25T04:24:23;98145.81;;;14.07;100.00
10948;BME280;5526;42.070;24.752;2023-04-25T04:26:50;98155.50;;;14.25;100.00
10948;BME280;5526;42.070;24.752;2023-04-25T04:29:17;98161.28;;;14.27;100.00
10948;BME280;5526;42.070;24.752;2023-04-25T04:31:49;98150.75;;;14.36;100.00
10948;BME280;5526;42.070;24.752;2023-04-25T04:34:16;98157.63;;;14.50;100.00
10948;BME280;5526;42.070;24.752;2023-04-25T04:36:44;98149.81;;;14.67;100.00
10948;BME280;5526;42.070;24.752;2023-04-25T04:39:11;98147.16;;;14.67;100.00
10948;BME280;5526;42.070;24.752;2023-04-25T04:41:38;98141.72;;;14.72;100.00
10948;BME280;5526;42.070;24.752;2023-04-25T04:44:06;98153.28;;;14.76;100.00
10948;BME280;5526;42.070;24.752;2023-04-25T04:46:34;98157.63;;;14.94;100.00
10948;BME280;5526;42.070;24.752;2023-04-25T04:49:05;98152.94;;;14.91;100.00
10948;BME280;5526;42.070;24.752;2023-04-25T04:51:33;98153.66;;;14.83;100.00
10948;BME280;5526;42.070;24.752;2023-04-25T04:54:00;98160.63;;;14.79;100.00
10948;BME280;5526;42.070;24.752;2023-04-25T04:56:28;98153.22;;;14.90;100.00
10948;BME280;5526;42.070;24.752;2023-04-25T04:58:56;98154.25;;;15.02;100.00
10948;BME280;5526;42.070;24.752;2023-04-25T05:01:23;98155.22;;;15.06;100.00
10948;BME280;5526;42.070;24.752;2023-04-25T05:03:51;98156.13;;;15.02;100.00
10948;BME280;5526;42.070;24.752;2023-04-25T05:06:20;98155.69;;;15.08;100.00
10948;BME280;5526;42.070;24.752;2023-04-25T05:08:47;98147.75;;;15.08;100.00
10948;BME280;5526;42.070;24.752;2023-04-25T05:11:14;98159.78;;;15.14;100.00
10948;BME280;5526;42.070;24.752;2023-04-25T05:13:41;98153.50;;;15.32;100.00
10948;BME280;5526;42.070;24.752;2023-04-25T05:16:08;98164.66;;;15.43;100.00
10948;BME280;5526;42.070;24.752;2023-04-25T05:18:35;98156.06;;;15.37;100.00
10948;BME280;5526;42.070;24.752;2023-04-25T05:21:04;98144.06;;;15.40;100.00
10948;BME280;5526;42.070;24.752;2023-04-25T05:23:33;98156.88;;;15.46;100.00
10948;BME280;5526;42.070;24.752;2023-04-25T05:26:00;98144.09;;;15.48;100.00
10948;BME280;5526;42.070;24.752;2023-04-25T05:28:27;98155.53;;;15.57;100.00
10948;BME280;5526;42.070;24.752;2023-04-25T05:30:54;98150.72;;;15.68;100.00
10948;BME280;5526;42.070;24.752;2023-04-25T05:33:22;98159.69;;;15.80;100.00
10948;BME280;5526;42.070;24.752;2023-04-25T05:35:49;98156.28;;;15.88;100.00
10948;BME280;5526;42.070;24.752;2023-04-25T05:38:16;98160.34;;;15.94;100.00
10948;BME280;5526;42.070;24.752;2023-04-25T05:40:45;98148.19;;;16.02;100.00
10948;BME280;5526;42.070;24.752;2023-04-25T05:43:12;98150.25;;;16.13;100.00
10948;BME280;5526;42.070;24.752;2023-04-25T05:45:39;98153.22;;;16.20;100.00
10948;BME280;5526;42.070;24.752;2023-04-25T05:48:06;98150.13;;;16.35;100.00
10948;BME280;5526;42.070;24.752;2023-04-25T05:50:33;98154.41;;;16.53;100.00
10948;BME280;5526;42.070;24.752;2023-04-25T05:53:00;98141.28;;;16.91;100.00
10948;BME280;5526;42.070;24.752;2023-04-25T05:55:28;98153.63;;;16.87;100.00
10948;BME280;5526;42.070;24.752;2023-04-25T05:57:56;98155.47;;;17.03;100.00
10948;BME280;5526;42.070;24.752;2023-04-25T06:00:23;98149.97;;;17.26;100.00
10948;BME280;5526;42.070;24.752;2023-04-25T06:02:50;98157.69;;;17.65;100.00
10948;BME280;5526;42.070;24.752;2023-04-25T06:05:17;98148.25;;;17.76;100.00
10948;BME280;5526;42.070;24.752;2023-04-25T06:07:44;98159.16;;;17.45;100.00
10948;BME280;5526;42.070;24.752;2023-04-25T06:10:11;98153.66;;;17.96;99.52
10948;BME280;5526;42.070;24.752;2023-04-25T06:12:38;98147.97;;;18.27;98.52
10948;BME280;5526;42.070;24.752;2023-04-25T06:15:07;98145.09;;;18.40;96.02
10948;BME280;5526;42.070;24.752;2023-04-25T06:17:36;98138.97;;;18.40;95.52
10948;BME280;5526;42.070;24.752;2023-04-25T06:20:03;98152.88;;;18.45;95.80
10948;BME280;5526;42.070;24.752;2023-04-25T06:22:31;98152.69;;;18.50;95.02
10948;BME280;5526;42.070;24.752;2023-04-25T06:24:58;98151.78;;;18.46;94.43
10948;BME280;5526;42.070;24.752;2023-04-25T06:27:25;98151.47;;;18.48;94.96
10948;BME280;5526;42.070;24.752;2023-04-25T06:29:52;98154.72;;;18.74;94.41
10948;BME280;5526;42.070;24.752;2023-04-25T06:32:21;98144.75;;;18.83;95.52
10948;BME280;5526;42.070;24.752;2023-04-25T06:34:48;98141.06;;;18.55;96.95
10948;BME280;5526;42.070;24.752;2023-04-25T06:37:15;98143.13;;;18.90;95.10
10948;BME280;5526;42.070;24.752;2023-04-25T06:39:42;98141.72;;;19.05;94.48
10948;BME280;5526;42.070;24.752;2023-04-25T06:42:09;98141.84;;;19.08;93.61
10948;BME280;5526;42.070;24.752;2023-04-25T06:44:36;98141.16;;;18.99;93.23
10948;BME280;5526;42.070;24.752;2023-04-25T06:47:03;98136.75;;;19.15;93.66
10948;BME280;5526;42.070;24.752;2023-04-25T06:49:32;98137.81;;;19.35;92.04
10948;BME280;5526;42.070;24.752;2023-04-25T06:51:59;98141.78;;;19.73;89.91
10948;BME280;5526;42.070;24.752;2023-04-25T06:54:26;98138.22;;;19.69;90.71
10948;BME280;5526;42.070;24.752;2023-04-25T06:56:55;98129.31;;;19.65;90.21
10948;BME280;5526;42.070;24.752;2023-04-25T06:59:22;98146.53;;;19.44;93.21
10948;BME280;5526;42.070;24.752;2023-04-25T07:01:49;98145.16;;;19.38;92.10
10948;BME280;5526;42.070;24.752;2023-04-25T07:04:16;98142.75;;;19.45;91.74
10948;BME280;5526;42.070;24.752;2023-04-25T07:06:45;98143.66;;;19.97;90.27
10948;BME280;5526;42.070;24.752;2023-04-25T07:09:13;98137.25;;;20.10;89.75
10948;BME280;5526;42.070;24.752;2023-04-25T07:11:40;98138.31;;;20.21;89.46
10948;BME280;5526;42.070;24.752;2023-04-25T07:14:07;98141.69;;;20.06;89.59
10948;BME280;5526;42.070;24.752;2023-04-25T07:16:34;98141.31;;;20.07;88.45
10948;BME280;5526;42.070;24.752;2023-04-25T07:19:01;98136.94;;;20.51;86.86
10948;BME280;5526;42.070;24.752;2023-04-25T07:21:28;98137.63;;;20.36;86.54
10948;BME280;5526;42.070;24.752;2023-04-25T07:23:57;98134.38;;;20.54;84.85
10948;BME280;5526;42.070;24.752;2023-04-25T07:26:24;98141.97;;;20.40;84.34
10948;BME280;5526;42.070;24.752;2023-04-25T07:28:51;98139.53;;;20.47;84.35
10948;BME280;5526;42.070;24.752;2023-04-25T07:31:20;98139.81;;;21.56;76.91
10948;BME280;5526;42.070;24.752;2023-04-25T07:33:47;98144.47;;;21.01;78.79
10948;BME280;5526;42.070;24.752;2023-04-25T07:36:13;98133.88;;;21.04;79.08
10948;BME280;5526;42.070;24.752;2023-04-25T07:38:41;98141.19;;;20.92;80.02
10948;BME280;5526;42.070;24.752;2023-04-25T07:41:10;98131.63;;;20.78;81.24
10948;BME280;5526;42.070;24.752;2023-04-25T07:43:37;98130.47;;;21.19;79.31
10948;BME280;5526;42.070;24.752;2023-04-25T07:46:04;98133.34;;;21.42;78.52
10948;BME280;5526;42.070;24.752;2023-04-25T07:48:31;98128.78;;;21.73;77.59
10948;BME280;5526;42.070;24.752;2023-04-25T07:50:58;98119.34;;;21.64;77.19
10948;BME280;5526;42.070;24.752;2023-04-25T07:53:25;98129.34;;;21.36;78.15
10948;BME280;5526;42.070;24.752;2023-04-25T07:55:52;98126.13;;;21.15;78.57
10948;BME280;5526;42.070;24.752;2023-04-25T07:58:21;98115.09;;;21.16;78.22
10948;BME280;5526;42.070;24.752;2023-04-25T08:00:48;98121.09;;;20.85;79.17
10948;BME280;5526;42.070;24.752;2023-04-25T08:03:15;98126.97;;;20.91;79.38
10948;BME280;5526;42.070;24.752;2023-04-25T08:05:42;98128.09;;;21.61;77.98
10948;BME280;5526;42.070;24.752;2023-04-25T08:08:09;98121.06;;;22.37;76.17
10948;BME280;5526;42.070;24.752;2023-04-25T08:10:36;98121.94;;;22.98;72.58
10948;BME280;5526;42.070;24.752;2023-04-25T08:13:03;98127.66;;;22.24;75.35
10948;BME280;5526;42.070;24.752;2023-04-25T08:15:31;98125.25;;;22.54;71.99
10948;BME280;5526;42.070;24.752;2023-04-25T08:17:58;98127.88;;;22.00;74.09
10948;BME280;5526;42.070;24.752;2023-04-25T08:20:26;98122.66;;;21.73;76.04
10948;BME280;5526;42.070;24.752;2023-04-25T08:22:53;98126.59;;;21.48;76.52
10948;BME280;5526;42.070;24.752;2023-04-25T08:25:20;98119.78;;;21.35;76.44
10948;BME280;5526;42.070;24.752;2023-04-25T08:27:47;98114.06;;;21.67;75.62
10948;BME280;5526;42.070;24.752;2023-04-25T08:30:14;98116.53;;;22.07;74.21
10948;BME280;5526;42.070;24.752;2023-04-25T08:32:42;98121.59;;;22.62;73.19
10948;BME280;5526;42.070;24.752;2023-04-25T08:35:09;98118.69;;;22.51;72.87
10948;BME280;5526;42.070;24.752;2023-04-25T08:37:36;98119.66;;;22.43;73.04
10948;BME280;5526;42.070;24.752;2023-04-25T08:40:04;98123.78;;;21.87;74.62
10948;BME280;5526;42.070;24.752;2023-04-25T08:42:33;98122.47;;;21.97;74.66
10948;BME280;5526;42.070;24.752;2023-04-25T08:45:01;98119.84;;;22.00;73.63
10948;BME280;5526;42.070;24.752;2023-04-25T08:47:30;98125.06;;;21.78;75.22
10948;BME280;5526;42.070;24.752;2023-04-25T08:50:02;98137.00;;;21.80;76.17
10948;BME280;5526;42.070;24.752;2023-04-25T08:52:35;98150.69;;;21.32;78.64
10948;BME280;5526;42.070;24.752;2023-04-25T08:55:03;98144.22;;;20.78;79.74
10948;BME280;5526;42.070;24.752;2023-04-25T08:57:31;98128.25;;;20.54;81.42
10948;BME280;5526;42.070;24.752;2023-04-25T09:00:01;98120.50;;;20.37;83.48
10948;BME280;5526;42.070;24.752;2023-04-25T09:02:29;98127.63;;;20.45;86.29
10948;BME280;5526;42.070;24.752;2023-04-25T09:04:57;98136.13;;;19.75;86.64
10948;BME280;5526;42.070;24.752;2023-04-25T09:07:25;98138.97;;;19.46;87.55
10948;BME280;5526;42.070;24.752;2023-04-25T09:09:53;98135.25;;;19.26;89.70
10948;BME280;5526;42.070;24.752;2023-04-25T09:12:19;98133.59;;;19.34;88.61
10948;BME280;5526;42.070;24.752;2023-04-25T09:15:02;98126.84;;;19.48;89.29
10948;BME280;5526;42.070;24.752;2023-04-25T09:17:29;98124.75;;;19.78;87.84
10948;BME280;5526;42.070;24.752;2023-04-25T09:20:06;98124.31;;;19.64;86.53
10948;BME280;5526;42.070;24.752;2023-04-25T09:22:36;98127.41;;;19.66;85.60
10948;BME280;5526;42.070;24.752;2023-04-25T09:25:07;98126.66;;;19.65;85.48
10948;BME280;5526;42.070;24.752;2023-04-25T09:27:34;98137.09;;;20.30;83.52
10948;BME280;5526;42.070;24.752;2023-04-25T09:30:02;98133.56;;;20.66;82.32
10948;BME280;5526;42.070;24.752;2023-04-25T09:32:29;98127.56;;;20.57;82.05
10948;BME280;5526;42.070;24.752;2023-04-25T09:34:57;98121.53;;;20.60;81.60
10948;BME280;5526;42.070;24.752;2023-04-25T09:37:25;98123.28;;;20.80;80.88
10948;BME280;5526;42.070;24.752;2023-04-25T09:39:55;98119.59;;;20.72;80.42
10948;BME280;5526;42.070;24.752;2023-04-25T09:42:23;98114.63;;;20.31;81.36
10948;BME280;5526;42.070;24.752;2023-04-25T09:44:52;98112.84;;;20.63;81.39
10948;BME280;5526;42.070;24.752;2023-04-25T09:47:20;98117.31;;;20.87;81.68
10948;BME280;5526;42.070;24.752;2023-04-25T09:49:49;98108.81;;;20.97;81.71
10948;BME280;5526;42.070;24.752;2023-04-25T09:52:18;98106.88;;;21.09;81.70
10948;BME280;5526;42.070;24.752;2023-04-25T09:54:49;98098.50;;;20.83;81.02
10948;BME280;5526;42.070;24.752;2023-04-25T09:57:18;98098.44;;;20.40;83.13
10948;BME280;5526;42.070;24.752;2023-04-25T09:59:47;98091.94;;;20.53;82.98
10948;BME280;5526;42.070;24.752;2023-04-25T10:02:16;98093.03;;;20.52;82.67
10948;BME280;5526;42.070;24.752;2023-04-25T10:04:48;98087.19;;;20.89;80.62
10948;BME280;5526;42.070;24.752;2023-04-25T10:07:18;98082.88;;;20.97;80.73
10948;BME280;5526;42.070;24.752;2023-04-25T10:09:48;98080.97;;;20.85;81.21
10948;BME280;5526;42.070;24.752;2023-04-25T10:12:17;98081.50;;;20.91;79.97
10948;BME280;5526;42.070;24.752;2023-04-25T10:14:45;98062.00;;;21.34;78.47
10948;BME280;5526;42.070;24.752;2023-04-25T10:17:13;98062.16;;;21.72;77.22
10948;BME280;5526;42.070;24.752;2023-04-25T10:19:40;98056.16;;;21.94;77.41
10948;BME280;5526;42.070;24.752;2023-04-25T10:22:12;98046.06;;;22.41;74.09
10948;BME280;5526;42.070;24.752;2023-04-25T10:24:41;98028.22;;;22.67;74.03
10948;BME280;5526;42.070;24.752;2023-04-25T10:27:12;98033.97;;;22.88;73.90
10948;BME280;5526;42.070;24.752;2023-04-25T10:29:41;98032.63;;;22.98;71.69
10948;BME280;5526;42.070;24.752;2023-04-25T10:32:08;98030.34;;;22.58;71.85
10948;BME280;5526;42.070;24.752;2023-04-25T10:34:39;98014.34;;;23.07;60.52
10948;BME280;5526;42.070;24.752;2023-04-25T10:37:09;98003.22;;;23.53;61.58
10948;BME280;5526;42.070;24.752;2023-04-25T10:39:38;97991.25;;;23.99;59.45
10948;BME280;5526;42.070;24.752;2023-04-25T10:42:05;97988.16;;;23.45;59.00
10948;BME280;5526;42.070;24.752;2023-04-25T10:44:33;97984.13;;;22.87;58.94
10948;BME280;5526;42.070;24.752;2023-04-25T10:47:02;97982.31;;;23.17;57.68
10948;BME280;5526;42.070;24.752;2023-04-25T10:49:32;97975.63;;;23.08;57.71
10948;BME280;5526;42.070;24.752;2023-04-25T10:52:14;97970.88;;;22.75;58.52
10948;BME280;5526;42.070;24.752;2023-04-25T10:54:42;97977.91;;;23.80;55.83
10948;BME280;5526;42.070;24.752;2023-04-25T10:57:28;97978.16;;;23.98;52.47
10948;BME280;5526;42.070;24.752;2023-04-25T10:59:58;97958.09;;;23.36;53.58
10948;BME280;5526;42.070;24.752;2023-04-25T11:02:28;97960.28;;;23.27;52.71
10948;BME280;5526;42.070;24.752;2023-04-25T11:04:55;97966.97;;;23.66;52.27
10948;BME280;5526;42.070;24.752;2023-04-25T11:07:33;97964.50;;;23.54;51.87
10948;BME280;5526;42.070;24.752;2023-04-25T11:10:02;97961.16;;;23.61;52.54
10948;BME280;5526;42.070;24.752;2023-04-25T11:12:30;97939.88;;;23.78;53.67
10948;BME280;5526;42.070;24.752;2023-04-25T11:14:59;97942.41;;;24.27;52.96
10948;BME280;5526;42.070;24.752;2023-04-25T11:17:28;97949.59;;;24.16;52.53
10948;BME280;5526;42.070;24.752;2023-04-25T11:19:56;97947.13;;;23.74;53.23
10948;BME280;5526;42.070;24.752;2023-04-25T11:22:23;97944.03;;;23.72;52.65
10948;BME280;5526;42.070;24.752;2023-04-25T11:24:50;97947.44;;;23.69;53.29
10948;BME280;5526;42.070;24.752;2023-04-25T11:27:17;97953.13;;;23.64;52.79
10948;BME280;5526;42.070;24.752;2023-04-25T11:29:44;97946.09;;;23.56;53.28
10948;BME280;5526;42.070;24.752;2023-04-25T11:32:14;97939.56;;;23.28;53.03
10948;BME280;5526;42.070;24.752;2023-04-25T11:34:43;97927.75;;;23.10;54.49
10948;BME280;5526;42.070;24.752;2023-04-25T11:37:11;97940.22;;;23.21;55.45
10948;BME280;5526;42.070;24.752;2023-04-25T11:39:43;97934.72;;;23.14;54.51
10948;BME280;5526;42.070;24.752;2023-04-25T11:42:11;97934.09;;;22.98;54.28
10948;BME280;5526;42.070;24.752;2023-04-25T11:44:39;97919.44;;;23.41;53.54
10948;BME280;5526;42.070;24.752;2023-04-25T11:47:06;97917.81;;;23.36;54.02
10948;BME280;5526;42.070;24.752;2023-04-25T11:49:33;97914.59;;;23.53;53.73
10948;BME280;5526;42.070;24.752;2023-04-25T11:52:03;97907.28;;;23.50;52.33
10948;BME280;5526;42.070;24.752;2023-04-25T11:54:35;97912.31;;;23.85;51.68
10948;BME280;5526;42.070;24.752;2023-04-25T11:57:02;97904.59;;;24.09;50.75
10948;BME280;5526;42.070;24.752;2023-04-25T11:59:29;97902.22;;;24.41;50.29
10948;BME280;5526;42.070;24.752;2023-04-25T12:01:56;97897.50;;;24.68;49.86
10948;BME280;5526;42.070;24.752;2023-04-25T12:04:25;97895.63;;;24.75;50.23
10948;BME280;5526;42.070;24.752;2023-04-25T12:06:53;97886.56;;;24.53;49.68
10948;BME280;5526;42.070;24.752;2023-04-25T12:09:30;97878.69;;;24.75;48.90
10948;BME280;5526;42.070;24.752;2023-04-25T12:11:58;97872.66;;;24.88;49.58
10948;BME280;5526;42.070;24.752;2023-04-25T12:14:29;97862.34;;;24.97;50.06
10948;BME280;5526;42.070;24.752;2023-04-25T12:16:58;97865.97;;;25.26;49.81
10948;BME280;5526;42.070;24.752;2023-04-25T12:19:27;97858.53;;;25.02;48.51
10948;BME280;5526;42.070;24.752;2023-04-25T12:21:59;97857.59;;;25.38;47.36
10948;BME280;5526;42.070;24.752;2023-04-25T12:24:28;97855.50;;;25.07;46.30
10948;BME280;5526;42.070;24.752;2023-04-25T12:27:00;97857.97;;;24.79;45.60
10948;BME280;5526;42.070;24.752;2023-04-25T12:29:29;97865.53;;;24.22;48.26
10948;BME280;5526;42.070;24.752;2023-04-25T12:31:57;97858.09;;;24.49;47.43
10948;BME280;5526;42.070;24.752;2023-04-25T12:34:24;97869.94;;;24.85;46.59
10948;BME280;5526;42.070;24.752;2023-04-25T12:36:52;97865.97;;;24.65;46.23
10948;BME280;5526;42.070;24.752;2023-04-25T12:39:20;97865.00;;;24.46;47.73
10948;BME280;5526;42.070;24.752;2023-04-25T12:41:50;97858.53;;;25.02;45.64
10948;BME280;5526;42.070;24.752;2023-04-25T12:44:17;97857.09;;;25.15;44.88
10948;BME280;5526;42.070;24.752;2023-04-25T12:46:44;97853.59;;;25.11;45.42
10948;BME280;5526;42.070;24.752;2023-04-25T12:49:11;97851.97;;;25.60;44.40
10948;BME280;5526;42.070;24.752;2023-04-25T12:51:38;97850.50;;;25.80;44.13
10948;BME280;5526;42.070;24.752;2023-04-25T12:54:07;97844.03;;;26.09;42.58
10948;BME280;5526;42.070;24.752;2023-04-25T12:56:35;97837.38;;;25.79;43.59
10948;BME280;5526;42.070;24.752;2023-04-25T12:59:04;97839.06;;;26.11;42.89